Time;durP1;ratioP1;P1;durP2;ratioP2;P2;SDS_P1;SDS_P2;PMS_P1;PMS_P2;Temp;Humidity;BMP_temperature;BMP_pressure;BME280_temperature;BME280_humidity;BME280_pressure;Samples;Min_cycle;Max_cycle;Signal;HPM_P1;HPM_P2
2022/02/19 00:00:23;;;;;;;6.90;2.65;;;5.50;99.90;;;;;;479176;246;27546;-75
2022/02/19 00:02:20;;;;;;;6.30;2.72;;;5.60;99.90;;;;;;479133;248;27513;-75
2022/02/19 00:04:21;;;;;;;9.50;2.90;;;5.60;99.90;;;;;;479472;248;27503;-75
2022/02/19 00:06:22;;;;;;;8.35;2.55;;;5.50;99.90;;;;;;479480;246;28781;-75
2022/02/19 00:08:23;;;;;;;10.02;3.05;;;5.50;99.90;;;;;;479464;248;27921;-76
2022/02/19 00:10:25;;;;;;;9.07;3.58;;;5.50;99.90;;;;;;479454;248;27510;-75
2022/02/19 00:12:26;;;;;;;12.15;3.50;;;5.50;99.90;;;;;;479443;248;27435;-76
2022/02/19 00:14:27;;;;;;;11.35;2.80;;;5.60;99.90;;;;;;479466;248;27457;-76
2022/02/19 00:16:28;;;;;;;6.95;2.65;;;5.50;99.90;;;;;;479456;248;27459;-75
2022/02/19 00:18:30;;;;;;;5.95;2.70;;;5.50;99.90;;;;;;479450;248;27447;-75
2022/02/19 00:20:34;;;;;;;5.50;2.60;;;5.50;99.90;;;;;;479433;248;27629;-76
2022/02/19 00:22:38;;;;;;;11.50;2.95;;;5.50;99.90;;;;;;479397;248;27479;-75
2022/02/19 00:24:36;;;;;;;7.62;3.00;;;5.50;99.90;;;;;;483383;235;27962;-75
2022/02/19 00:26:37;;;;;;;8.90;3.03;;;5.40;99.90;;;;;;492101;241;28112;-75
2022/02/19 00:28:39;;;;;;;7.82;2.53;;;5.40;99.90;;;;;;492095;241;27443;-76
2022/02/19 00:30:40;;;;;;;11.12;2.70;;;5.40;99.90;;;;;;492072;241;27448;-76
2022/02/19 00:32:41;;;;;;;8.27;2.45;;;5.40;99.90;;;;;;492079;241;27383;-76
2022/02/19 00:34:42;;;;;;;5.75;2.95;;;5.50;99.90;;;;;;492076;241;27432;-76
2022/02/19 00:36:44;;;;;;;5.22;2.80;;;5.50;99.90;;;;;;492088;241;27856;-76
2022/02/19 00:38:45;;;;;;;7.18;3.30;;;5.50;99.90;;;;;;492088;241;27511;-76
2022/02/19 00:40:46;;;;;;;8.73;2.87;;;5.40;99.90;;;;;;492069;241;27479;-76
2022/02/19 00:42:47;;;;;;;7.72;3.62;;;5.50;99.90;;;;;;492073;241;27942;-76
2022/02/19 00:44:49;;;;;;;9.32;2.90;;;5.50;99.90;;;;;;492088;241;27894;-76
2022/02/19 00:46:50;;;;;;;9.50;2.85;;;5.50;99.90;;;;;;492106;241;27491;-75
2022/02/19 00:48:51;;;;;;;8.43;3.08;;;5.40;99.90;;;;;;492078;241;27377;-76
2022/02/19 00:50:52;;;;;;;7.22;2.70;;;5.40;99.90;;;;;;475849;248;27473;-77
2022/02/19 00:52:57;;;;;;;5.93;2.60;;;5.40;99.90;;;;;;475868;248;27498;-76
2022/02/19 00:54:55;;;;;;;9.60;3.15;;;5.40;99.90;;;;;;475392;250;27500;-76
2022/02/19 00:56:56;;;;;;;14.10;3.12;;;5.50;99.90;;;;;;475918;248;27450;-76
2022/02/19 00:58:57;;;;;;;7.07;2.65;;;5.50;99.90;;;;;;475882;248;27950;-76
2022/02/19 01:00:59;;;;;;;10.77;3.00;;;5.50;99.90;;;;;;475892;248;27945;-76
2022/02/19 01:03:00;;;;;;;10.23;3.40;;;5.60;99.90;;;;;;475875;248;27517;-76
2022/02/19 01:05:01;;;;;;;6.95;2.70;;;5.60;99.90;;;;;;475893;248;27489;-75
2022/02/19 01:07:02;;;;;;;9.23;3.33;;;5.60;99.90;;;;;;475884;248;27437;-75
2022/02/19 01:09:04;;;;;;;7.65;3.28;;;5.60;99.90;;;;;;475916;248;27516;-75
2022/02/19 01:11:05;;;;;;;8.77;3.20;;;5.60;99.90;;;;;;475913;248;27458;-76
2022/02/19 01:13:06;;;;;;;9.10;2.83;;;5.60;99.90;;;;;;475898;248;27442;-77
2022/02/19 01:15:09;;;;;;;8.18;2.47;;;5.60;99.90;;;;;;475901;248;27872;-76
2022/02/19 01:17:09;;;;;;;16.05;2.92;;;5.60;99.90;;;;;;475775;250;27963;-76
2022/02/19 01:19:10;;;;;;;11.70;2.78;;;5.60;99.90;;;;;;475902;248;27979;-75
2022/02/19 01:21:11;;;;;;;11.43;2.83;;;5.50;99.90;;;;;;475891;248;27529;-75
2022/02/19 01:23:12;;;;;;;11.48;3.78;;;5.40;99.90;;;;;;475923;248;27557;-76
2022/02/19 01:25:14;;;;;;;12.65;3.42;;;5.40;99.90;;;;;;475917;248;27422;-75
2022/02/19 01:27:15;;;;;;;10.18;2.78;;;5.30;99.90;;;;;;475929;248;27537;-75
2022/02/19 01:29:16;;;;;;;11.60;3.30;;;5.30;99.90;;;;;;475924;248;28634;-74
2022/02/19 01:31:17;;;;;;;8.55;2.83;;;5.30;99.90;;;;;;475908;248;27860;-76
2022/02/19 01:33:19;;;;;;;9.75;2.90;;;5.30;99.90;;;;;;475909;248;28046;-76
2022/02/19 01:35:20;;;;;;;6.90;2.85;;;5.20;99.90;;;;;;475913;248;27493;-75
2022/02/19 01:37:21;;;;;;;9.40;3.28;;;5.20;99.90;;;;;;475916;248;27450;-76
2022/02/19 01:39:22;;;;;;;5.47;2.87;;;5.30;99.90;;;;;;475928;248;27461;-75
2022/02/19 01:41:24;;;;;;;8.68;2.80;;;5.20;99.90;;;;;;475936;248;27394;-75
2022/02/19 01:43:25;;;;;;;9.07;2.90;;;5.20;99.90;;;;;;475916;248;27462;-75
2022/02/19 01:45:26;;;;;;;13.27;4.53;;;5.20;99.90;;;;;;475904;248;27410;-75
2022/02/19 01:47:28;;;;;;;9.13;2.75;;;5.20;99.90;;;;;;475907;248;28013;-75
2022/02/19 01:49:29;;;;;;;13.07;4.37;;;5.20;99.90;;;;;;475918;248;28024;-74
2022/02/19 01:51:33;;;;;;;6.53;2.83;;;5.20;99.90;;;;;;475919;248;27502;-75
2022/02/19 01:53:34;;;;;;;9.30;2.58;;;5.20;99.90;;;;;;475891;248;27960;-75
2022/02/19 01:55:35;;;;;;;10.88;2.80;;;5.10;99.90;;;;;;475901;248;28097;-75
2022/02/19 01:57:37;;;;;;;6.57;2.55;;;5.20;99.90;;;;;;475891;248;27456;-76
2022/02/19 01:59:38;;;;;;;10.20;3.42;;;5.10;99.90;;;;;;475880;248;27481;-76
2022/02/19 02:01:39;;;;;;;6.00;2.70;;;5.10;99.90;;;;;;475941;248;27444;-75
2022/02/19 02:03:40;;;;;;;8.63;2.90;;;5.10;99.90;;;;;;475914;248;27402;-75
2022/02/19 02:05:42;;;;;;;8.82;2.85;;;5.00;99.90;;;;;;475910;244;27438;-75
2022/02/19 02:07:43;;;;;;;8.82;2.53;;;5.10;99.90;;;;;;475906;248;27953;-75
2022/02/19 02:09:44;;;;;;;10.40;3.00;;;5.10;99.90;;;;;;475830;248;27441;-75
2022/02/19 02:11:45;;;;;;;10.07;3.25;;;5.00;99.90;;;;;;475919;248;27520;-75
2022/02/19 02:13:47;;;;;;;5.85;2.60;;;5.00;99.90;;;;;;475878;248;27489;-76
2022/02/19 02:15:48;;;;;;;9.25;3.25;;;5.00;99.90;;;;;;475893;248;27572;-76
2022/02/19 02:17:49;;;;;;;4.18;2.72;;;5.00;99.90;;;;;;475859;248;27473;-75
2022/02/19 02:19:50;;;;;;;7.87;2.75;;;5.00;99.90;;;;;;475867;250;27530;-76
2022/02/19 02:21:52;;;;;;;5.00;2.53;;;5.10;99.90;;;;;;475893;248;27485;-75
2022/02/19 02:23:53;;;;;;;8.50;2.87;;;5.00;99.90;;;;;;475888;248;27948;-75
2022/02/19 02:25:54;;;;;;;9.38;2.70;;;5.00;99.90;;;;;;475881;248;27936;-76
2022/02/19 02:27:55;;;;;;;11.07;2.92;;;5.00;99.90;;;;;;475881;248;27860;-76
2022/02/19 02:29:57;;;;;;;6.35;2.90;;;4.90;99.90;;;;;;475875;248;27429;-75
2022/02/19 02:31:58;;;;;;;11.93;2.65;;;4.90;99.90;;;;;;475897;248;27522;-77
2022/02/19 02:33:59;;;;;;;6.30;2.75;;;4.90;99.90;;;;;;475868;248;27513;-75
2022/02/19 02:36:00;;;;;;;10.93;2.70;;;4.90;99.90;;;;;;475883;248;27457;-75
2022/02/19 02:38:02;;;;;;;5.55;2.33;;;4.90;99.90;;;;;;475871;248;27799;-75
2022/02/19 02:40:03;;;;;;;8.23;2.92;;;4.80;99.90;;;;;;475894;248;27508;-75
2022/02/19 02:42:04;;;;;;;6.93;2.78;;;4.70;99.90;;;;;;475895;248;27953;-76
2022/02/19 02:44:06;;;;;;;6.18;2.60;;;4.70;99.90;;;;;;475886;248;27880;-75
2022/02/19 02:46:07;;;;;;;10.90;3.00;;;4.80;99.90;;;;;;475899;248;27936;-75
2022/02/19 02:48:08;;;;;;;14.57;2.97;;;4.70;99.90;;;;;;475879;248;27421;-75
2022/02/19 02:50:10;;;;;;;12.88;2.90;;;4.60;99.90;;;;;;475889;248;27553;-75
2022/02/19 02:52:11;;;;;;;8.13;2.80;;;4.60;99.90;;;;;;475895;248;27555;-77
2022/02/19 02:54:12;;;;;;;13.30;4.12;;;4.60;99.90;;;;;;475882;248;27422;-76
2022/02/19 02:56:13;;;;;;;6.40;2.60;;;4.60;99.90;;;;;;475887;248;27448;-76
2022/02/19 02:58:14;;;;;;;11.60;3.12;;;4.60;99.90;;;;;;475870;248;27506;-76
2022/02/19 03:00:18;;;;;;;6.10;3.12;;;4.60;99.90;;;;;;475878;248;28016;-75
2022/02/19 03:02:20;;;;;;;17.58;3.25;;;4.60;99.90;;;;;;475899;248;27862;-75
2022/02/19 03:04:21;;;;;;;11.40;3.08;;;4.60;99.90;;;;;;475885;248;28033;-76
2022/02/19 03:06:22;;;;;;;9.52;2.60;;;4.50;99.90;;;;;;475904;248;27952;-75
2022/02/19 03:08:23;;;;;;;10.18;2.92;;;4.50;99.90;;;;;;475893;248;27458;-75
2022/02/19 03:10:25;;;;;;;11.75;2.60;;;4.50;99.90;;;;;;475895;248;27517;-75
2022/02/19 03:12:26;;;;;;;11.70;3.37;;;4.40;99.90;;;;;;475920;248;27465;-75
2022/02/19 03:14:27;;;;;;;9.57;3.55;;;4.50;99.90;;;;;;475887;248;27488;-75
2022/02/19 03:16:28;;;;;;;7.60;3.12;;;4.50;99.90;;;;;;475905;248;27418;-76
2022/02/19 03:18:30;;;;;;;10.15;3.15;;;4.50;99.90;;;;;;475905;248;27485;-75
2022/02/19 03:20:33;;;;;;;11.05;2.80;;;4.60;99.90;;;;;;475900;248;27532;-75
2022/02/19 03:22:32;;;;;;;12.43;3.00;;;4.60;99.90;;;;;;475792;250;27865;-75
2022/02/19 03:24:33;;;;;;;11.00;2.80;;;4.60;99.90;;;;;;475902;248;28024;-75
2022/02/19 03:26:35;;;;;;;11.73;3.45;;;4.60;99.90;;;;;;475892;248;27391;-75
2022/02/19 03:28:36;;;;;;;9.43;2.78;;;4.60;99.90;;;;;;475908;248;27557;-75
2022/02/19 03:30:37;;;;;;;8.02;2.78;;;4.60;99.90;;;;;;475920;248;27446;-75
2022/02/19 03:32:38;;;;;;;7.07;2.60;;;4.60;99.90;;;;;;475904;248;27576;-75
2022/02/19 03:34:40;;;;;;;8.93;2.40;;;4.60;99.90;;;;;;475910;248;27557;-76
2022/02/19 03:36:41;;;;;;;7.70;2.67;;;4.60;99.90;;;;;;475901;248;27430;-75
2022/02/19 03:38:42;;;;;;;7.90;2.80;;;4.50;99.90;;;;;;475903;248;27522;-75
2022/02/19 03:40:43;;;;;;;4.00;2.08;;;4.50;99.90;;;;;;475921;248;27441;-75
2022/02/19 03:42:45;;;;;;;7.40;2.50;;;4.40;99.90;;;;;;475913;248;27870;-75
2022/02/19 03:44:46;;;;;;;7.53;2.42;;;4.40;99.90;;;;;;475913;248;28016;-75
2022/02/19 03:46:47;;;;;;;5.20;2.35;;;4.40;99.90;;;;;;475883;248;27955;-75
2022/02/19 03:48:48;;;;;;;6.00;2.37;;;4.30;99.90;;;;;;475893;248;27433;-75
2022/02/19 03:50:50;;;;;;;4.05;2.30;;;4.30;99.90;;;;;;475895;248;27437;-76
2022/02/19 03:52:51;;;;;;;10.05;2.40;;;4.20;99.90;;;;;;475927;248;27513;-75
2022/02/19 03:54:52;;;;;;;7.28;3.10;;;4.30;99.90;;;;;;475916;248;27438;-76
2022/02/19 03:56:53;;;;;;;6.65;2.40;;;4.20;99.90;;;;;;475913;248;27407;-75
2022/02/19 03:58:55;;;;;;;7.05;2.50;;;4.20;99.90;;;;;;475925;248;27537;-76
2022/02/19 04:00:56;;;;;;;5.28;2.10;;;4.20;99.90;;;;;;475908;248;27545;-76
2022/02/19 04:02:57;;;;;;;5.37;2.60;;;4.20;99.90;;;;;;475878;248;27501;-75
2022/02/19 04:04:58;;;;;;;6.47;2.40;;;4.20;99.90;;;;;;475893;248;27452;-75
2022/02/19 04:07:00;;;;;;;7.82;2.62;;;4.20;99.90;;;;;;475895;248;27445;-74
2022/02/19 04:09:01;;;;;;;9.70;2.28;;;4.20;99.90;;;;;;475870;248;28025;-75
2022/02/19 04:11:02;;;;;;;5.40;2.40;;;4.10;99.90;;;;;;475881;248;27920;-75
2022/02/19 04:13:04;;;;;;;5.53;2.50;;;4.10;99.90;;;;;;475904;248;28000;-75
2022/02/19 04:15:05;;;;;;;9.45;2.50;;;4.10;99.90;;;;;;475890;248;28011;-75
2022/02/19 04:17:06;;;;;;;10.82;3.33;;;4.10;99.90;;;;;;475871;248;27475;-75
2022/02/19 04:19:07;;;;;;;4.47;2.50;;;4.10;99.90;;;;;;475878;245;27444;-75
2022/02/19 04:21:08;;;;;;;7.22;2.60;;;4.10;99.90;;;;;;475901;248;27435;-75
2022/02/19 04:23:10;;;;;;;5.40;2.45;;;4.20;99.90;;;;;;475906;248;27529;-73
2022/02/19 04:25:11;;;;;;;11.77;2.45;;;4.10;99.90;;;;;;475886;248;27522;-73
2022/02/19 04:27:12;;;;;;;4.35;2.35;;;4.10;99.90;;;;;;475894;248;27406;-75
2022/02/19 04:29:13;;;;;;;4.15;2.47;;;4.20;99.90;;;;;;475898;248;27476;-73
2022/02/19 04:31:15;;;;;;;7.28;2.70;;;4.20;99.90;;;;;;475886;248;27915;-73
2022/02/19 04:33:16;;;;;;;6.43;2.22;;;4.20;99.90;;;;;;475869;248;27489;-73
2022/02/19 04:35:17;;;;;;;5.57;2.40;;;4.10;99.90;;;;;;475912;248;27956;-73
2022/02/19 04:37:18;;;;;;;7.25;2.70;;;4.10;99.90;;;;;;475880;248;28008;-73
2022/02/19 04:39:20;;;;;;;5.93;2.30;;;4.20;99.90;;;;;;475884;248;28022;-73
2022/02/19 04:41:21;;;;;;;2.70;2.15;;;4.10;99.90;;;;;;475907;248;28014;-74
2022/02/19 04:43:22;;;;;;;5.95;2.55;;;4.10;99.90;;;;;;475893;248;27502;-74
2022/02/19 04:45:23;;;;;;;4.18;2.10;;;4.10;99.90;;;;;;475867;248;27454;-74
2022/02/19 04:47:25;;;;;;;6.87;2.55;;;4.10;99.90;;;;;;475877;248;27413;-73
2022/02/19 04:49:26;;;;;;;4.93;2.33;;;4.10;99.90;;;;;;475882;248;27517;-73
2022/02/19 04:51:27;;;;;;;8.95;2.67;;;4.10;99.90;;;;;;475921;248;27445;-73
2022/02/19 04:53:28;;;;;;;9.05;2.70;;;4.00;99.90;;;;;;475887;248;27418;-74
2022/02/19 04:55:30;;;;;;;5.85;2.35;;;4.00;99.90;;;;;;475896;248;27478;-74
2022/02/19 04:57:31;;;;;;;5.93;2.58;;;4.00;99.90;;;;;;475903;248;27414;-73
2022/02/19 04:59:32;;;;;;;5.20;2.28;;;3.90;99.90;;;;;;475913;248;27448;-73
2022/02/19 05:01:33;;;;;;;8.13;2.60;;;4.00;99.90;;;;;;475915;248;27473;-74
2022/02/19 05:03:38;;;;;;;8.90;2.50;;;4.00;99.90;;;;;;475936;248;27848;-73
2022/02/19 05:05:39;;;;;;;8.18;2.70;;;4.00;99.90;;;;;;475900;248;27410;-73
2022/02/19 05:07:40;;;;;;;6.28;2.40;;;4.00;99.90;;;;;;475876;248;27588;-76
2022/02/19 05:09:41;;;;;;;10.45;2.65;;;3.90;99.90;;;;;;475894;248;27406;-76
2022/02/19 05:11:43;;;;;;;5.12;2.35;;;3.90;99.90;;;;;;475884;248;27889;-76
2022/02/19 05:13:44;;;;;;;15.88;3.30;;;3.80;99.90;;;;;;475879;248;27948;-74
2022/02/19 05:15:45;;;;;;;7.78;2.97;;;3.80;99.90;;;;;;475914;248;27860;-73
2022/02/19 05:17:46;;;;;;;4.20;2.22;;;3.80;99.90;;;;;;475857;248;27425;-74
2022/02/19 05:19:48;;;;;;;6.20;2.37;;;3.90;99.90;;;;;;475953;248;27394;-74
2022/02/19 05:21:49;;;;;;;9.75;2.70;;;3.90;99.90;;;;;;475945;248;27399;-73
2022/02/19 05:23:50;;;;;;;9.05;3.00;;;3.80;99.90;;;;;;475908;248;27449;-73
2022/02/19 05:25:51;;;;;;;9.85;2.80;;;3.80;99.90;;;;;;475939;248;27406;-73
2022/02/19 05:27:53;;;;;;;5.15;2.20;;;3.70;99.90;;;;;;475918;248;27552;-74
2022/02/19 05:29:54;;;;;;;8.90;2.50;;;3.70;99.90;;;;;;475892;248;27430;-73
2022/02/19 05:31:55;;;;;;;5.62;2.20;;;3.70;99.90;;;;;;475880;248;27450;-74
2022/02/19 05:33:56;;;;;;;5.03;2.28;;;3.70;99.90;;;;;;475893;248;27465;-72
2022/02/19 05:35:58;;;;;;;7.82;2.67;;;3.70;99.90;;;;;;475926;248;27550;-73
2022/02/19 05:37:59;;;;;;;4.45;2.03;;;3.80;99.90;;;;;;475894;248;27445;-74
2022/02/19 05:40:00;;;;;;;5.25;2.70;;;3.80;99.90;;;;;;475883;248;27931;-73
2022/02/19 05:42:01;;;;;;;4.87;2.53;;;3.80;99.90;;;;;;475877;248;28017;-74
2022/02/19 05:44:06;;;;;;;6.78;2.70;;;3.80;99.90;;;;;;475883;248;28014;-75
2022/02/19 05:46:04;;;;;;;9.73;2.65;;;3.80;99.90;;;;;;475325;250;27477;-74
2022/02/19 05:48:05;;;;;;;10.13;2.37;;;3.80;99.90;;;;;;475896;248;27529;-74
2022/02/19 05:50:07;;;;;;;8.63;2.92;;;3.80;99.90;;;;;;475882;248;27453;-73
2022/02/19 05:52:08;;;;;;;6.05;2.67;;;3.80;99.90;;;;;;475882;248;27532;-73
2022/02/19 05:54:09;;;;;;;3.72;2.33;;;3.80;99.90;;;;;;475897;248;27521;-73
2022/02/19 05:56:10;;;;;;;4.55;2.37;;;3.80;99.90;;;;;;475888;248;27461;-73
2022/02/19 05:58:11;;;;;;;9.57;3.00;;;3.80;99.90;;;;;;475858;248;27545;-73
2022/02/19 06:00:13;;;;;;;7.55;2.10;;;3.80;99.90;;;;;;475873;248;27414;-73
2022/02/19 06:02:14;;;;;;;7.28;2.80;;;3.80;99.90;;;;;;475902;248;27438;-73
2022/02/19 06:04:15;;;;;;;5.87;2.67;;;3.80;99.90;;;;;;475888;248;28023;-74
2022/02/19 06:06:16;;;;;;;5.87;2.37;;;3.80;99.90;;;;;;475896;248;27925;-73
2022/02/19 06:08:18;;;;;;;5.82;2.50;;;3.80;99.90;;;;;;475869;244;27940;-76
2022/02/19 06:10:19;;;;;;;3.65;1.90;;;3.80;99.90;;;;;;475856;248;27875;-75
2022/02/19 06:12:20;;;;;;;8.00;2.45;;;3.80;99.90;;;;;;475857;248;27449;-74
2022/02/19 06:14:21;;;;;;;9.27;2.67;;;3.80;99.90;;;;;;475808;248;27541;-76
2022/02/19 06:16:23;;;;;;;6.37;2.40;;;3.80;99.90;;;;;;475835;248;27410;-75
2022/02/19 06:18:24;;;;;;;3.30;2.03;;;3.80;99.90;;;;;;475838;248;27568;-75
2022/02/19 06:20:25;;;;;;;6.72;2.80;;;3.80;99.90;;;;;;475840;248;27418;-75
2022/02/19 06:22:26;;;;;;;6.18;2.30;;;3.70;99.90;;;;;;475839;248;27457;-73
2022/02/19 06:24:28;;;;;;;7.93;2.75;;;3.80;99.90;;;;;;475854;248;27544;-73
2022/02/19 06:26:29;;;;;;;5.53;2.50;;;3.80;99.90;;;;;;475854;248;27485;-75
2022/02/19 06:28:30;;;;;;;8.13;2.97;;;3.70;99.90;;;;;;475838;248;27497;-76
2022/02/19 06:30:31;;;;;;;4.85;2.95;;;3.80;99.90;;;;;;475841;248;27411;-75
2022/02/19 06:32:33;;;;;;;5.78;2.33;;;3.70;99.90;;;;;;475847;248;28032;-73
2022/02/19 06:34:34;;;;;;;5.30;2.15;;;3.70;99.90;;;;;;475913;248;27949;-73
2022/02/19 06:36:35;;;;;;;3.97;1.80;;;3.80;99.90;;;;;;475903;248;27889;-74
2022/02/19 06:38:39;;;;;;;10.27;2.50;;;3.70;99.90;;;;;;475879;248;27458;-74
2022/02/19 06:40:38;;;;;;;4.80;2.75;;;3.70;99.90;;;;;;475755;250;27406;-74
2022/02/19 06:42:39;;;;;;;3.65;2.33;;;3.70;99.90;;;;;;475912;248;27457;-74
2022/02/19 06:44:41;;;;;;;7.72;2.53;;;3.70;99.90;;;;;;475935;248;27445;-74
2022/02/19 06:46:41;;;;;;;4.45;2.10;;;3.70;99.90;;;;;;475932;248;27497;-74
2022/02/19 06:48:43;;;;;;;3.92;2.33;;;3.80;99.90;;;;;;475946;248;27530;-74
2022/02/19 06:50:44;;;;;;;6.87;2.12;;;3.80;99.90;;;;;;475915;248;27418;-74
2022/02/19 06:52:45;;;;;;;5.35;2.75;;;3.80;99.90;;;;;;475924;248;27518;-74
2022/02/19 06:54:46;;;;;;;6.50;2.47;;;3.80;99.90;;;;;;475925;248;27527;-75
2022/02/19 06:56:48;;;;;;;6.15;2.10;;;3.70;99.90;;;;;;475905;248;27410;-73
2022/02/19 06:58:49;;;;;;;14.15;2.62;;;3.70;99.90;;;;;;475885;248;27931;-74
2022/02/19 07:00:52;;;;;;;5.65;2.47;;;3.70;99.90;;;;;;475900;248;27928;-74
2022/02/19 07:02:53;;;;;;;6.47;2.10;;;3.70;99.90;;;;;;475829;250;27892;-74
2022/02/19 07:04:53;;;;;;;7.25;3.12;;;3.80;99.90;;;;;;475844;250;27562;-74
2022/02/19 07:06:54;;;;;;;9.60;2.30;;;3.80;99.90;;;;;;475882;248;27402;-74
2022/02/19 07:08:55;;;;;;;5.68;2.72;;;3.80;99.90;;;;;;475880;248;27545;-74
2022/02/19 07:10:56;;;;;;;7.53;2.30;;;3.80;99.90;;;;;;475885;244;27410;-74
2022/02/19 07:12:58;;;;;;;7.18;2.83;;;3.90;99.90;;;;;;475889;248;27461;-74
2022/02/19 07:14:59;;;;;;;7.03;2.45;;;3.80;99.90;;;;;;475895;248;27546;-73
2022/02/19 07:17:04;;;;;;;5.93;2.20;;;3.80;99.90;;;;;;475882;248;27465;-75
2022/02/19 07:19:01;;;;;;;2.75;2.10;;;3.90;99.90;;;;;;475602;250;27553;-74
2022/02/19 07:21:03;;;;;;;3.47;1.98;;;3.90;99.90;;;;;;475894;248;27498;-74
2022/02/19 07:23:04;;;;;;;8.57;2.83;;;3.90;99.90;;;;;;475856;248;27442;-74
2022/02/19 07:25:05;;;;;;;4.35;2.37;;;3.90;99.90;;;;;;475915;248;28086;-75
2022/02/19 07:27:08;;;;;;;2.45;1.90;;;3.90;99.90;;;;;;475868;248;27965;-73
2022/02/19 07:29:08;;;;;;;9.77;2.70;;;3.90;99.90;;;;;;475798;250;28059;-73
2022/02/19 07:31:13;;;;;;;7.03;2.58;;;4.00;99.90;;;;;;475878;248;27881;-74
2022/02/19 07:33:11;;;;;;;6.68;2.42;;;4.00;99.90;;;;;;475322;250;27537;-74
2022/02/19 07:35:12;;;;;;;4.65;1.90;;;4.00;99.90;;;;;;475899;248;27444;-74
2022/02/19 07:37:13;;;;;;;6.75;2.28;;;4.10;99.90;;;;;;475862;248;27438;-74
2022/02/19 07:39:14;;;;;;;6.32;2.20;;;4.10;99.90;;;;;;475889;248;27465;-74
2022/02/19 07:41:17;;;;;;;6.68;2.25;;;4.00;99.90;;;;;;475924;248;28039;-75
2022/02/19 07:43:17;;;;;;;9.07;2.33;;;4.10;99.90;;;;;;475842;248;27839;-74
2022/02/19 07:45:18;;;;;;;8.40;3.35;;;4.00;99.90;;;;;;475889;248;27931;-74
2022/02/19 07:47:19;;;;;;;8.55;2.30;;;4.00;99.90;;;;;;475893;248;27394;-74
2022/02/19 07:58:39;;;;;;;2.97;2.35;;;4.00;99.90;;;;;;475884;248;27553;-74
2022/02/19 08:00:40;;;;;;;4.97;2.45;;;4.10;99.90;;;;;;475903;248;27454;-74
2022/02/19 08:02:41;;;;;;;7.20;2.60;;;4.00;99.90;;;;;;475884;248;27438;-74
2022/02/19 08:04:43;;;;;;;7.80;2.45;;;4.00;99.90;;;;;;475860;248;27532;-74
2022/02/19 08:06:44;;;;;;;8.63;2.83;;;4.00;99.90;;;;;;475835;248;27434;-74
2022/02/19 08:08:45;;;;;;;6.30;2.33;;;4.00;99.90;;;;;;475835;248;27926;-74
2022/02/19 08:10:47;;;;;;;8.52;2.70;;;4.00;99.90;;;;;;475846;248;28024;-74
2022/02/19 08:12:48;;;;;;;5.47;2.08;;;4.10;99.90;;;;;;475855;248;27849;-74
2022/02/19 08:14:49;;;;;;;4.62;2.08;;;4.00;99.90;;;;;;475867;248;27532;-75
2022/02/19 08:16:50;;;;;;;10.48;2.42;;;4.00;99.90;;;;;;475907;248;27450;-74
2022/02/19 08:18:52;;;;;;;5.82;2.65;;;4.00;99.90;;;;;;475874;248;27541;-74
2022/02/19 08:20:53;;;;;;;8.82;2.20;;;3.90;99.90;;;;;;475834;250;27529;-74
2022/02/19 08:22:54;;;;;;;6.72;2.40;;;3.90;99.90;;;;;;475901;248;27485;-74
2022/02/19 08:24:56;;;;;;;6.85;3.00;;;3.90;99.90;;;;;;475884;248;27410;-73
2022/02/19 08:26:57;;;;;;;8.23;2.95;;;3.90;99.90;;;;;;475845;248;27446;-74
2022/02/19 08:28:59;;;;;;;6.57;3.08;;;3.90;99.90;;;;;;475908;248;27490;-75
2022/02/19 08:31:00;;;;;;;6.30;2.35;;;4.00;99.90;;;;;;475898;248;27466;-74
2022/02/19 08:33:01;;;;;;;3.25;2.42;;;4.00;99.90;;;;;;475891;248;27559;-74
2022/02/19 08:35:02;;;;;;;9.18;3.40;;;4.00;99.90;;;;;;475886;248;27482;-75
2022/02/19 08:37:04;;;;;;;7.50;2.72;;;4.00;99.90;;;;;;475875;248;27934;-74
2022/02/19 08:39:05;;;;;;;6.45;2.92;;;4.00;99.90;;;;;;475914;248;27957;-75
2022/02/19 08:41:06;;;;;;;15.38;3.78;;;4.10;99.90;;;;;;475904;248;28961;-74
2022/02/19 08:43:07;;;;;;;6.53;2.92;;;4.10;99.90;;;;;;475906;248;27522;-74
2022/02/19 08:45:09;;;;;;;7.43;3.47;;;4.30;99.90;;;;;;475905;248;27481;-74
2022/02/19 08:47:10;;;;;;;5.65;2.55;;;4.30;99.90;;;;;;475898;248;27513;-74
2022/02/19 08:49:11;;;;;;;6.40;2.50;;;4.40;99.90;;;;;;475933;248;27473;-76
2022/02/19 08:51:12;;;;;;;6.78;2.45;;;4.50;99.90;;;;;;475948;248;27516;-74
2022/02/19 08:53:14;;;;;;;5.37;2.20;;;4.40;99.90;;;;;;475898;244;27540;-75
2022/02/19 08:55:15;;;;;;;4.40;2.60;;;4.50;99.90;;;;;;475879;248;27414;-74
2022/02/19 08:57:16;;;;;;;6.45;2.70;;;4.60;99.90;;;;;;475888;248;27489;-75
2022/02/19 08:59:17;;;;;;;9.30;3.20;;;4.60;99.90;;;;;;475896;248;28010;-75
2022/02/19 09:01:19;;;;;;;7.12;2.53;;;4.60;99.90;;;;;;475895;248;27871;-74
2022/02/19 09:03:20;;;;;;;5.00;2.58;;;4.60;99.90;;;;;;475891;248;27927;-75
2022/02/19 09:05:21;;;;;;;5.10;2.30;;;4.60;99.90;;;;;;475881;248;27538;-74
2022/02/19 09:07:22;;;;;;;6.53;2.50;;;4.70;99.90;;;;;;475873;248;27521;-74
2022/02/19 09:09:24;;;;;;;7.00;2.90;;;4.80;99.90;;;;;;475900;248;27421;-74
2022/02/19 09:11:25;;;;;;;7.30;2.53;;;4.80;99.90;;;;;;475895;250;27569;-75
2022/02/19 09:13:26;;;;;;;7.12;2.33;;;4.90;99.90;;;;;;475907;248;27537;-74
2022/02/19 09:15:27;;;;;;;9.73;2.62;;;4.90;99.90;;;;;;475894;248;27406;-74
2022/02/19 09:17:29;;;;;;;6.20;2.70;;;4.80;99.90;;;;;;475894;248;28045;-74
2022/02/19 09:19:30;;;;;;;3.53;2.20;;;4.80;99.90;;;;;;475936;248;28029;-74
2022/02/19 09:21:31;;;;;;;7.78;2.40;;;5.00;99.90;;;;;;475889;248;27454;-75
2022/02/19 09:23:33;;;;;;;9.25;2.60;;;5.00;99.90;;;;;;475901;248;27469;-75
2022/02/19 09:25:34;;;;;;;3.97;2.47;;;5.00;99.90;;;;;;475896;248;27926;-74
2022/02/19 09:27:35;;;;;;;2.95;2.00;;;5.00;99.90;;;;;;475864;248;27936;-75
2022/02/19 09:29:36;;;;;;;6.10;2.30;;;5.10;99.90;;;;;;475896;248;27959;-74
2022/02/19 09:31:38;;;;;;;6.20;2.35;;;5.10;99.90;;;;;;475904;248;27390;-74
2022/02/19 09:33:39;;;;;;;6.47;2.60;;;5.10;99.90;;;;;;475908;248;27446;-74
2022/02/19 09:35:40;;;;;;;7.20;3.15;;;5.20;99.90;;;;;;475904;248;27418;-74
2022/02/19 09:37:41;;;;;;;6.72;2.55;;;5.20;99.90;;;;;;475911;248;27485;-75
2022/02/19 09:39:43;;;;;;;12.45;2.95;;;5.30;99.90;;;;;;475868;248;27484;-75
2022/02/19 09:41:44;;;;;;;3.47;2.33;;;5.30;99.90;;;;;;475892;248;27922;-74
2022/02/19 09:43:45;;;;;;;5.55;2.22;;;5.40;99.90;;;;;;475886;248;27999;-75
2022/02/19 09:45:46;;;;;;;6.43;2.35;;;5.50;99.90;;;;;;475902;248;27481;-74
2022/02/19 09:47:48;;;;;;;6.28;2.10;;;5.20;99.90;;;;;;475903;248;27517;-75
2022/02/19 09:49:49;;;;;;;7.47;2.30;;;5.30;99.90;;;;;;475948;248;27521;-77
2022/02/19 09:51:50;;;;;;;6.60;2.50;;;5.50;99.90;;;;;;475921;248;27405;-77
2022/02/19 09:53:51;;;;;;;6.55;2.17;;;5.40;99.90;;;;;;475914;248;27553;-76
2022/02/19 09:55:53;;;;;;;12.02;2.65;;;5.40;99.90;;;;;;476045;248;27507;-75
2022/02/19 09:57:54;;;;;;;5.00;2.22;;;5.50;99.90;;;;;;475880;248;27918;-74
2022/02/19 09:59:55;;;;;;;8.73;2.47;;;5.40;99.90;;;;;;475903;248;27473;-75
2022/02/19 10:01:56;;;;;;;4.70;2.20;;;5.40;99.90;;;;;;475935;248;27493;-76
2022/02/19 10:04:01;;;;;;;6.47;2.22;;;5.70;99.90;;;;;;475935;248;27436;-76
2022/02/19 10:05:59;;;;;;;9.55;2.75;;;5.80;99.90;;;;;;475763;250;27415;-76
2022/02/19 10:08:00;;;;;;;7.72;2.35;;;5.90;99.90;;;;;;475904;248;27474;-76
2022/02/19 10:10:01;;;;;;;10.03;3.73;;;6.00;99.90;;;;;;475983;248;27941;-76
2022/02/19 10:12:03;;;;;;;7.78;2.70;;;6.00;99.90;;;;;;475970;248;27980;-73
2022/02/19 10:14:04;;;;;;;6.28;2.17;;;5.90;99.90;;;;;;475988;248;27440;-74
2022/02/19 10:16:05;;;;;;;4.65;2.60;;;6.00;99.90;;;;;;475963;248;27410;-73
2022/02/19 10:18:07;;;;;;;10.00;3.25;;;6.00;99.90;;;;;;475929;248;27430;-74
2022/02/19 10:20:08;;;;;;;10.70;2.47;;;6.20;99.90;;;;;;475957;248;27457;-75
2022/02/19 10:22:09;;;;;;;6.97;2.20;;;6.10;99.90;;;;;;475923;248;28779;-77
2022/02/19 10:24:10;;;;;;;10.38;2.42;;;6.00;99.90;;;;;;475907;248;28909;-77
2022/02/19 10:26:12;;;;;;;2.97;1.93;;;6.00;99.90;;;;;;475941;248;28780;-76
2022/02/19 10:28:13;;;;;;;5.55;2.35;;;6.20;99.90;;;;;;475958;248;28153;-77
2022/02/19 10:30:14;;;;;;;6.13;2.10;;;6.40;99.90;;;;;;475982;248;27524;-76
2022/02/19 10:32:15;;;;;;;5.40;2.20;;;6.30;99.90;;;;;;475963;248;28005;-77
2022/02/19 10:34:17;;;;;;;7.07;2.20;;;6.30;99.90;;;;;;475928;248;28026;-77
2022/02/19 10:36:18;;;;;;;5.67;2.50;;;6.20;99.90;;;;;;475964;248;27918;-74
2022/02/19 10:38:20;;;;;;;6.37;2.60;;;6.00;99.90;;;;;;475930;248;28003;-77
2022/02/19 10:40:20;;;;;;;3.70;2.10;;;6.00;99.90;;;;;;475950;248;27454;-76
2022/02/19 10:42:22;;;;;;;6.93;2.43;;;6.10;99.90;;;;;;475926;248;28011;-76
2022/02/19 10:44:23;;;;;;;3.70;2.53;;;6.20;99.90;;;;;;475936;248;27843;-76
2022/02/19 10:46:24;;;;;;;5.20;2.30;;;6.20;99.90;;;;;;475934;248;28115;-76